createdAt,value
2019-02-26T00:01:46.197Z,9.15
2019-02-26T00:04:13.662Z,8.55
2019-02-26T00:06:47.174Z,9.15
2019-02-26T00:09:13.312Z,9.23
2019-02-26T00:11:42.221Z,9.25
2019-02-26T00:14:15.505Z,9.53
2019-02-26T00:16:42.385Z,9.23
2019-02-26T00:19:14.261Z,9.48
2019-02-26T00:21:43.455Z,9.70
2019-02-26T00:24:14.597Z,10.30
2019-02-26T00:26:45.158Z,9.75
2019-02-26T00:29:14.284Z,9.18
2019-02-26T00:31:43.999Z,9.13
2019-02-26T00:34:18.617Z,9.90
2019-02-26T00:36:47.256Z,9.58
2019-02-26T00:39:16.111Z,9.20
2019-02-26T00:41:44.952Z,8.70
2019-02-26T00:44:13.946Z,9.05
2019-02-26T00:46:42.994Z,7.87
2019-02-26T00:49:11.779Z,7.53
2019-02-26T00:51:44.304Z,7.53
2019-02-26T00:54:11.277Z,8.30
2019-02-26T00:56:41.103Z,7.78
2019-02-26T00:59:10.208Z,8.58
2019-02-26T01:01:39.262Z,8.53
2019-02-26T01:04:08.233Z,8.13
2019-02-26T01:06:37.127Z,8.75
2019-02-26T01:09:10.692Z,8.23
2019-02-26T01:11:38.522Z,8.80
2019-02-26T01:14:07.316Z,8.35
2019-02-26T01:16:37.069Z,8.78
2019-02-26T01:19:08.520Z,8.78
2019-02-26T01:21:37.921Z,8.60
2019-02-26T01:24:08.622Z,9.00
2019-02-26T01:26:37.558Z,8.05
2019-02-26T01:29:06.358Z,8.53
2019-02-26T01:31:35.124Z,7.87
2019-02-26T01:34:04.079Z,8.85
2019-02-26T01:36:32.961Z,9.23
2019-02-26T01:39:01.794Z,7.92
2019-02-26T01:41:30.692Z,8.55
2019-02-26T01:43:59.553Z,8.08
2019-02-26T01:46:30.080Z,7.80
2019-02-26T01:48:59.906Z,8.18
2019-02-26T01:51:29.912Z,8.58
2019-02-26T01:53:58.808Z,8.18
2019-02-26T01:56:27.706Z,8.65
2019-02-26T01:58:59.439Z,7.55
2019-02-26T02:01:27.302Z,8.18
2019-02-26T02:03:56.440Z,7.75
2019-02-26T02:06:25.246Z,7.47
2019-02-26T02:08:55.733Z,8.18
2019-02-26T02:11:28.430Z,7.33
2019-02-26T02:13:55.327Z,7.62
2019-02-26T02:16:26.203Z,8.53
2019-02-26T02:18:55.328Z,7.40
2019-02-26T02:21:26.006Z,7.90
2019-02-26T02:23:55.920Z,8.00
2019-02-26T02:26:24.742Z,7.65
2019-02-26T02:28:53.622Z,7.78
2019-02-26T02:31:24.557Z,7.08
2019-02-26T02:33:53.400Z,7.80
2019-02-26T02:36:23.633Z,7.42
2019-02-26T02:38:52.848Z,7.45
2019-02-26T02:41:21.711Z,6.92
2019-02-26T02:43:50.484Z,8.30
2019-02-26T02:46:19.272Z,7.55
2019-02-26T02:48:48.165Z,7.83
2019-02-26T02:51:17.051Z,7.37
2019-02-26T02:53:47.812Z,7.58
2019-02-26T02:56:17.954Z,8.18
2019-02-26T02:58:49.507Z,6.87
2019-02-26T03:01:19.580Z,8.00
2019-02-26T03:03:50.297Z,7.00
2019-02-26T03:06:18.441Z,7.10
2019-02-26T03:08:48.009Z,7.35
2019-02-26T03:11:17.692Z,7.85
2019-02-26T03:13:48.373Z,7.67
2019-02-26T03:16:18.977Z,6.90
2019-02-26T03:18:47.238Z,7.42
2019-02-26T03:21:16.739Z,7.58
2019-02-26T03:23:46.421Z,7.42
2019-02-26T03:26:17.671Z,7.65
2019-02-26T03:28:48.148Z,6.75
2019-02-26T03:31:16.197Z,7.55
2019-02-26T03:33:44.903Z,7.53
2019-02-26T03:36:14.576Z,7.75
2019-02-26T03:38:48.375Z,8.08
2019-02-26T03:41:16.477Z,8.13
2019-02-26T03:43:45.815Z,8.60
2019-02-26T03:46:14.495Z,7.97
2019-02-26T03:48:43.254Z,7.58
2019-02-26T03:51:11.939Z,7.92
2019-02-26T03:53:41.786Z,7.08
2019-02-26T03:56:14.345Z,7.53
2019-02-26T03:58:41.624Z,7.55
2019-02-26T04:01:13.044Z,7.72
2019-02-26T04:03:42.504Z,7.75
2019-02-26T04:06:12.191Z,7.20
2019-02-26T04:08:42.266Z,7.87
2019-02-26T04:11:11.590Z,7.35
2019-02-26T04:13:41.064Z,7.22
2019-02-26T04:16:10.831Z,7.75
2019-02-26T04:18:39.751Z,6.62
2019-02-26T04:21:09.367Z,6.85
2019-02-26T04:23:41.570Z,7.25
2019-02-26T04:26:29.202Z,7.10
2019-02-26T04:29:19.912Z,7.30
2019-02-26T04:32:09.150Z,6.87
2019-02-26T04:34:54.655Z,7.05
2019-02-26T04:37:46.043Z,6.92
2019-02-26T04:40:28.380Z,7.70
2019-02-26T04:43:08.100Z,7.28
2019-02-26T04:45:53.038Z,6.95
2019-02-26T04:48:23.705Z,6.80
2019-02-26T04:50:53.206Z,6.83
2019-02-26T04:53:23.407Z,6.33
2019-02-26T04:55:52.626Z,7.75
2019-02-26T04:58:22.678Z,7.95
2019-02-26T05:00:51.820Z,6.75
2019-02-26T05:03:20.763Z,11.28
2019-02-26T05:05:53.705Z,7.42
2019-02-26T05:08:20.202Z,7.67
2019-02-26T05:10:51.325Z,8.40
2019-02-26T05:13:21.839Z,7.67
2019-02-26T05:15:49.936Z,7.03
2019-02-26T05:18:20.358Z,8.18
2019-02-26T05:20:49.128Z,7.95
2019-02-26T05:23:20.502Z,7.92
2019-02-26T05:25:48.736Z,7.58
2019-02-26T05:28:17.723Z,8.13
2019-02-26T05:30:49.485Z,7.42
2019-02-26T05:33:18.450Z,9.33
2019-02-26T05:35:48.990Z,8.45
2019-02-26T05:38:17.835Z,6.95
2019-02-26T05:40:48.227Z,7.00
2019-02-26T05:43:16.937Z,7.25
2019-02-26T05:45:45.619Z,7.65
2019-02-26T05:48:16.205Z,7.22
2019-02-26T05:50:44.880Z,7.20
2019-02-26T05:53:13.621Z,7.65
2019-02-26T05:55:45.092Z,7.40
2019-02-26T05:58:15.817Z,7.45
2019-02-26T06:00:43.283Z,7.85
2019-02-26T06:03:13.015Z,7.90
2019-02-26T06:05:45.747Z,8.50
2019-02-26T06:08:12.918Z,8.13
2019-02-26T06:10:41.594Z,7.20
2019-02-26T06:13:12.863Z,7.15
2019-02-26T06:15:40.581Z,8.33
2019-02-26T06:18:09.183Z,7.12
2019-02-26T06:20:38.032Z,7.33
2019-02-26T06:23:06.994Z,8.20
2019-02-26T06:25:35.626Z,8.30
2019-02-26T06:28:06.942Z,8.35
2019-02-26T06:30:34.777Z,8.05
2019-02-26T06:33:12.193Z,8.53
2019-02-26T06:35:41.153Z,8.60
2019-02-26T06:38:32.182Z,9.63
2019-02-26T06:41:00.472Z,8.28
2019-02-26T06:43:30.950Z,9.85
2019-02-26T06:46:00.167Z,9.25
2019-02-26T06:48:32.252Z,9.28
2019-02-26T06:51:04.132Z,9.03
2019-02-26T06:53:31.054Z,8.95
2019-02-26T06:56:00.847Z,11.88
2019-02-26T06:58:30.148Z,11.05
2019-02-26T07:00:59.260Z,12.25
2019-02-26T07:03:31.209Z,10.28
2019-02-26T07:06:06.184Z,9.18
2019-02-26T07:08:34.946Z,9.85
2019-02-26T07:11:26.254Z,9.45
2019-02-26T07:13:55.250Z,8.85
2019-02-26T07:16:24.034Z,9.53
2019-02-26T07:18:52.722Z,9.15
2019-02-26T07:21:21.439Z,10.27
2019-02-26T07:23:51.531Z,8.20
2019-02-26T07:26:21.242Z,9.33
2019-02-26T07:28:51.259Z,8.47
2019-02-26T07:31:19.955Z,8.27
2019-02-26T07:33:48.679Z,8.43
2019-02-26T07:36:18.538Z,9.07
2019-02-26T07:38:49.670Z,8.77
2019-02-26T07:41:18.887Z,8.03
2019-02-26T07:43:49.373Z,7.83
2019-02-26T07:46:19.279Z,8.50
2019-02-26T07:48:53.632Z,7.43
2019-02-26T07:51:19.760Z,6.73
2019-02-26T07:53:50.998Z,7.83
2019-02-26T07:56:20.663Z,8.13
2019-02-26T07:58:49.293Z,8.07
2019-02-26T08:01:17.951Z,7.53
2019-02-26T08:03:48.681Z,8.40
2019-02-26T08:06:17.153Z,7.90
2019-02-26T08:08:48.465Z,7.53
2019-02-26T08:11:16.414Z,8.33
2019-02-26T08:13:45.084Z,8.20
2019-02-26T08:16:13.771Z,8.10
2019-02-26T08:18:42.351Z,7.37
2019-02-26T08:21:10.993Z,7.57
2019-02-26T08:23:41.299Z,6.90
2019-02-26T08:26:10.161Z,7.53
2019-02-26T08:28:40.929Z,6.90
2019-02-26T08:31:11.266Z,6.67
2019-02-26T08:33:39.637Z,6.53
2019-02-26T08:36:08.332Z,6.73
2019-02-26T08:38:37.049Z,6.50
2019-02-26T08:41:05.788Z,7.70
2019-02-26T08:43:34.469Z,6.30
2019-02-26T08:46:03.124Z,6.57
2019-02-26T08:48:31.892Z,6.93
2019-02-26T08:51:03.062Z,6.73
2019-02-26T08:53:31.618Z,6.10
2019-02-26T08:56:01.961Z,6.77
2019-02-26T08:58:31.050Z,6.93
2019-02-26T09:00:59.720Z,6.53
2019-02-26T09:03:28.464Z,6.90
2019-02-26T09:06:10.172Z,7.07
2019-02-26T09:08:27.513Z,6.30
2019-02-26T09:10:56.113Z,7.43
2019-02-26T09:13:25.565Z,8.03
2019-02-26T09:15:55.615Z,7.27
2019-02-26T09:18:28.059Z,7.27
2019-02-26T09:20:55.331Z,7.83
2019-02-26T09:23:25.828Z,7.50
2019-02-26T09:25:57.188Z,6.93
2019-02-26T09:28:27.012Z,8.43
2019-02-26T09:30:56.420Z,8.00
2019-02-26T09:33:30.552Z,8.00
2019-02-26T09:35:56.735Z,8.37
2019-02-26T09:38:25.619Z,7.70
2019-02-26T09:40:54.709Z,7.90
2019-02-26T09:43:24.704Z,7.83
2019-02-26T09:45:53.435Z,7.23
2019-02-26T09:48:22.126Z,7.57
2019-02-26T09:50:50.870Z,7.93
2019-02-26T09:53:19.520Z,7.20
2019-02-26T09:55:48.148Z,7.23
2019-02-26T09:58:18.599Z,7.97
2019-02-26T10:00:47.993Z,7.40
2019-02-26T10:03:17.506Z,7.80
2019-02-26T10:05:48.209Z,6.77
2019-02-26T10:08:17.345Z,7.13
2019-02-26T10:10:47.022Z,6.73
2019-02-26T10:13:16.459Z,7.03
2019-02-26T10:15:45.979Z,7.53
2019-02-26T10:18:14.694Z,7.87
2019-02-26T10:20:45.182Z,7.40
2019-02-26T10:23:13.696Z,8.23
2019-02-26T10:25:42.399Z,7.17
2019-02-26T10:28:30.193Z,7.87
2019-02-26T10:31:03.862Z,7.63
2019-02-26T10:33:50.748Z,8.00
2019-02-26T10:36:41.222Z,7.93
2019-02-26T10:39:47.309Z,7.67
2019-02-26T10:42:18.096Z,6.83
2019-02-26T10:44:52.073Z,7.30
2019-02-26T10:47:22.769Z,7.20
2019-02-26T10:49:51.860Z,7.13
2019-02-26T10:52:22.104Z,7.23
2019-02-26T11:19:33.791Z,6.50
2019-02-26T11:22:04.161Z,6.17
2019-02-26T11:24:35.623Z,7.03
2019-02-26T11:27:04.262Z,6.87
2019-02-26T11:29:35.705Z,6.03
2019-02-26T11:32:04.627Z,6.57
2019-02-26T11:34:36.289Z,5.83
2019-02-26T11:37:08.770Z,6.10
2019-02-26T11:39:35.797Z,6.13
2019-02-26T11:42:04.603Z,5.60
2019-02-26T11:44:35.253Z,6.17
2019-02-26T11:47:04.401Z,5.60
2019-02-26T11:49:47.981Z,5.83
2019-02-26T11:52:28.671Z,5.70
2019-02-26T11:55:11.087Z,6.23
2019-02-26T11:57:49.841Z,6.23
2019-02-26T12:00:33.893Z,5.80
2019-02-26T12:03:01.172Z,5.53
2019-02-26T12:05:54.211Z,5.87
2019-02-26T12:08:43.125Z,6.20
2019-02-26T12:11:25.640Z,6.03
2019-02-26T12:14:16.424Z,5.27
2019-02-26T12:20:24.181Z,5.40
2019-02-26T12:23:41.649Z,6.00
2019-02-26T12:26:35.734Z,5.40
2019-02-26T12:29:23.541Z,5.30
2019-02-26T12:32:04.727Z,5.50
2019-02-26T12:47:49.427Z,2.83
2019-02-26T13:18:33.662Z,3.80
2019-02-26T13:32:55.320Z,3.03
2019-02-26T14:08:04.522Z,2.20
2019-02-26T15:15:32.461Z,3.50
2019-02-26T15:47:54.770Z,3.57
2019-02-26T15:51:14.082Z,3.90
2019-02-26T15:54:12.919Z,3.53
2019-02-26T15:56:53.586Z,4.03
2019-02-26T16:03:07.678Z,3.60
2019-02-26T16:06:06.448Z,3.87
2019-02-26T16:08:38.560Z,4.17
2019-02-26T16:29:03.891Z,3.57
2019-02-26T16:31:40.750Z,3.87
2019-02-26T16:36:59.562Z,4.13
2019-02-26T16:39:28.251Z,4.00
2019-02-26T16:41:57.316Z,4.00
2019-02-26T16:44:25.989Z,4.23
2019-02-26T16:46:54.652Z,4.00
2019-02-26T16:49:25.817Z,3.77
2019-02-26T16:51:54.954Z,3.80
2019-02-26T16:54:24.393Z,4.13
2019-02-26T16:56:54.674Z,4.20
2019-02-26T17:02:28.004Z,4.30
2019-02-26T17:04:57.088Z,4.30
2019-02-26T17:07:25.966Z,4.23
2019-02-26T17:09:55.742Z,3.90
2019-02-26T17:12:26.915Z,4.37
2019-02-26T17:14:56.226Z,4.87
2019-02-26T17:24:11.191Z,4.20
2019-02-26T17:26:39.927Z,4.37
2019-02-26T17:29:08.673Z,4.43
2019-02-26T17:31:37.426Z,4.33
2019-02-26T17:34:06.215Z,4.73
2019-02-26T17:36:35.486Z,4.40
2019-02-26T17:39:05.428Z,4.40
2019-02-26T17:41:34.998Z,4.70
2019-02-26T17:44:03.712Z,5.13
2019-02-26T17:46:32.487Z,5.23
2019-02-26T17:49:02.951Z,5.83
2019-02-26T17:51:31.597Z,5.00
2019-02-26T17:54:01.987Z,5.67
2019-02-26T17:56:30.956Z,5.43
2019-02-26T17:58:59.696Z,5.70
2019-02-26T18:01:28.484Z,6.00
2019-02-26T18:03:57.342Z,5.23
2019-02-26T18:06:26.105Z,5.50
2019-02-26T18:08:56.469Z,5.87
2019-02-26T18:11:25.514Z,5.83
2019-02-26T18:13:54.314Z,5.27
2019-02-26T18:16:23.022Z,5.80
2019-02-26T18:18:51.716Z,5.70
2019-02-26T18:21:20.491Z,5.90
2019-02-26T18:23:49.255Z,5.50
2019-02-26T18:26:18.431Z,6.03
2019-02-26T18:28:47.794Z,5.17
2019-02-26T18:31:26.031Z,5.43
2019-02-26T18:33:47.512Z,5.57
2019-02-26T18:36:18.621Z,5.40
2019-02-26T18:38:48.768Z,5.10
2019-02-26T18:41:17.885Z,5.57
2019-02-26T18:43:47.425Z,5.10
2019-02-26T18:46:16.881Z,5.13
2019-02-26T18:48:48.344Z,5.23
2019-02-26T18:51:16.051Z,5.90
2019-02-26T18:53:47.082Z,5.93
2019-02-26T18:56:15.421Z,5.63
2019-02-26T18:58:44.138Z,5.43
2019-02-26T19:01:12.909Z,5.43
2019-02-26T19:03:42.158Z,5.87
2019-02-26T19:06:11.086Z,5.03
2019-02-26T19:08:39.969Z,5.87
2019-02-26T19:11:08.742Z,6.73
2019-02-26T19:13:37.526Z,5.93
2019-02-26T19:16:06.359Z,6.20
2019-02-26T19:18:35.741Z,6.00
2019-02-26T19:21:05.084Z,5.80
2019-02-26T19:23:33.882Z,5.97
2019-02-26T19:26:02.556Z,6.10
2019-02-26T19:28:31.329Z,6.77
2019-02-26T19:31:00.039Z,6.93
2019-02-26T19:33:28.673Z,6.40
2019-02-26T19:35:57.357Z,6.77
2019-02-26T19:38:27.690Z,6.43
2019-02-26T19:40:57.083Z,7.27
2019-02-26T19:43:26.074Z,7.20
2019-02-26T19:45:55.375Z,7.73
2019-02-26T19:48:24.170Z,7.70
2019-02-26T19:50:52.883Z,8.27
2019-02-26T19:53:21.554Z,10.20
2019-02-26T19:55:50.288Z,9.77
2019-02-26T19:58:19.054Z,11.60
2019-02-26T20:00:47.830Z,10.40
2019-02-26T20:03:16.591Z,10.93
2019-02-26T20:05:46.632Z,12.40
2019-02-26T20:08:15.632Z,10.27
2019-02-26T20:10:47.723Z,11.13
2019-02-26T20:13:14.946Z,10.57
2019-02-26T20:15:43.701Z,10.37
2019-02-26T20:18:20.260Z,10.50
2019-02-26T20:20:45.693Z,9.27
2019-02-26T20:23:13.177Z,8.30
2019-02-26T20:25:42.754Z,8.97
2019-02-26T20:28:12.087Z,10.13
2019-02-26T20:30:40.772Z,8.17
2019-02-26T20:33:09.518Z,7.93
2019-02-26T20:35:38.226Z,8.20
2019-02-26T20:38:06.939Z,9.30
2019-02-26T20:40:35.717Z,9.07
2019-02-26T20:43:05.399Z,9.53
2019-02-26T20:45:34.214Z,8.50
2019-02-26T20:48:04.169Z,7.70
2019-02-26T20:50:41.624Z,7.83
2019-02-26T20:53:10.315Z,7.10
2019-02-26T20:55:39.064Z,7.57
2019-02-26T20:58:09.643Z,7.80
2019-02-26T21:00:42.410Z,7.67
2019-02-26T21:03:08.704Z,7.63
2019-02-26T21:05:37.368Z,7.33
2019-02-26T21:08:06.093Z,7.03
2019-02-26T21:10:34.846Z,7.40
2019-02-26T21:13:03.516Z,6.47
2019-02-26T21:15:32.193Z,6.03
2019-02-26T21:18:00.893Z,7.67
2019-02-26T21:20:29.595Z,6.90
2019-02-26T21:22:58.314Z,7.00
2019-02-26T21:25:27.004Z,6.50
2019-02-26T21:27:55.698Z,6.50
2019-02-26T21:30:24.456Z,6.47
2019-02-26T21:32:53.310Z,7.20
2019-02-26T21:35:21.982Z,7.47
2019-02-26T21:37:50.688Z,6.80
2019-02-26T21:40:19.351Z,6.67
2019-02-26T21:42:48.030Z,7.70
2019-02-26T21:45:16.754Z,7.13
2019-02-26T21:47:45.417Z,7.13
2019-02-26T21:50:14.205Z,6.93
2019-02-26T21:52:42.958Z,7.37
2019-02-26T21:55:11.702Z,7.13
2019-02-26T21:57:40.450Z,7.57
2019-02-26T22:00:10.720Z,6.73
2019-02-26T22:02:39.432Z,6.63
2019-02-26T22:05:08.657Z,6.70
2019-02-26T22:07:37.394Z,6.50
2019-02-26T22:10:07.272Z,6.80
2019-02-26T22:12:36.495Z,6.57
2019-02-26T22:15:10.227Z,6.77
2019-02-26T22:17:36.010Z,6.40
2019-02-26T22:20:05.360Z,6.40
2019-02-26T22:22:34.128Z,7.00
2019-02-26T22:25:09.503Z,6.80
2019-02-26T22:27:33.745Z,7.33
2019-02-26T22:30:04.917Z,6.77
2019-02-26T22:32:34.973Z,6.23
2019-02-26T22:35:03.988Z,7.47
2019-02-26T22:37:32.673Z,5.80
2019-02-26T22:40:01.432Z,6.70
2019-02-26T22:42:30.169Z,6.00
2019-02-26T22:44:58.868Z,5.63
2019-02-26T22:47:27.518Z,6.10
2019-02-26T22:49:56.189Z,5.30
2019-02-26T22:52:24.902Z,5.80
2019-02-26T22:54:53.635Z,5.63
2019-02-26T22:57:22.330Z,5.30
2019-02-26T22:59:50.920Z,5.87
2019-02-26T23:02:20.127Z,5.90
2019-02-26T23:04:52.619Z,5.60
2019-02-26T23:07:19.227Z,6.27
2019-02-26T23:09:52.024Z,5.83
2019-02-26T23:12:19.165Z,6.00
2019-02-26T23:14:47.858Z,6.37
2019-02-26T23:17:16.878Z,5.80
2019-02-26T23:19:45.584Z,6.37
2019-02-26T23:22:14.258Z,5.40
